sensor_id;sensor_type;location;lat;lon;timestamp;pressure;altitude;pressure_sealevel;temperature;humidity
20015;BME280;61787;42.022;23.078;2023-05-08T00:00:07;96903.25;;;16.77;73.55
20015;BME280;61787;42.022;23.078;2023-05-08T00:01:09;96896.00;;;16.54;74.49
20015;BME280;61787;42.022;23.078;2023-05-08T00:02:10;96894.38;;;16.46;75.47
20015;BME280;61787;42.022;23.078;2023-05-08T00:03:12;96895.22;;;16.54;75.51
20015;BME280;61787;42.022;23.078;2023-05-08T00:04:14;96892.94;;;16.56;75.07
20015;BME280;61787;42.022;23.078;2023-05-08T00:05:16;96898.63;;;16.17;76.76
20015;BME280;61787;42.022;23.078;2023-05-08T00:06:18;96890.22;;;15.96;78.14
20015;BME280;61787;42.022;23.078;2023-05-08T00:07:19;96883.66;;;15.97;78.27
20015;BME280;61787;42.022;23.078;2023-05-08T00:08:21;96889.84;;;15.98;78.60
20015;BME280;61787;42.022;23.078;2023-05-08T00:09:23;96889.44;;;15.96;78.49
20015;BME280;61787;42.022;23.078;2023-05-08T00:10:26;96898.44;;;15.77;79.34
20015;BME280;61787;42.022;23.078;2023-05-08T00:11:27;96891.13;;;15.77;79.81
20015;BME280;61787;42.022;23.078;2023-05-08T00:12:29;96894.97;;;15.76;79.99
20015;BME280;61787;42.022;23.078;2023-05-08T00:13:31;96890.34;;;15.77;79.50
20015;BME280;61787;42.022;23.078;2023-05-08T00:14:32;96887.97;;;15.75;80.40
20015;BME280;61787;42.022;23.078;2023-05-08T00:15:35;96887.28;;;15.78;80.29
20015;BME280;61787;42.022;23.078;2023-05-08T00:16:36;96878.84;;;15.84;79.82
20015;BME280;61787;42.022;23.078;2023-05-08T00:17:38;96887.16;;;15.71;80.55
20015;BME280;61787;42.022;23.078;2023-05-08T00:18:40;96889.91;;;15.75;80.74
20015;BME280;61787;42.022;23.078;2023-05-08T00:19:41;96892.28;;;15.80;80.47
20015;BME280;61787;42.022;23.078;2023-05-08T00:20:43;96889.69;;;15.87;80.03
20015;BME280;61787;42.022;23.078;2023-05-08T00:21:45;96897.53;;;15.96;79.96
20015;BME280;61787;42.022;23.078;2023-05-08T00:22:46;96899.53;;;15.99;79.34
20015;BME280;61787;42.022;23.078;2023-05-08T00:23:48;96900.78;;;16.05;79.08
20015;BME280;61787;42.022;23.078;2023-05-08T00:24:49;96897.81;;;16.13;78.68
20015;BME280;61787;42.022;23.078;2023-05-08T00:25:51;96901.75;;;16.19;78.54
20015;BME280;61787;42.022;23.078;2023-05-08T00:26:53;96896.06;;;16.28;78.14
20015;BME280;61787;42.022;23.078;2023-05-08T00:27:54;96901.88;;;16.30;77.95
20015;BME280;61787;42.022;23.078;2023-05-08T00:28:56;96899.56;;;16.32;78.56
20015;BME280;61787;42.022;23.078;2023-05-08T00:29:57;96901.88;;;16.30;78.58
20015;BME280;61787;42.022;23.078;2023-05-08T00:30:59;96894.94;;;16.33;78.08
20015;BME280;61787;42.022;23.078;2023-05-08T00:32:02;96893.53;;;16.42;77.93
20015;BME280;61787;42.022;23.078;2023-05-08T00:33:04;96888.53;;;16.44;77.90
20015;BME280;61787;42.022;23.078;2023-05-08T00:34:05;96891.88;;;16.34;78.09
20015;BME280;61787;42.022;23.078;2023-05-08T00:35:07;96886.22;;;16.16;78.89
20015;BME280;61787;42.022;23.078;2023-05-08T00:36:09;96888.47;;;16.11;78.96
20015;BME280;61787;42.022;23.078;2023-05-08T00:37:10;96881.28;;;16.22;79.23
20015;BME280;61787;42.022;23.078;2023-05-08T00:38:12;96890.34;;;16.37;78.06
20015;BME280;61787;42.022;23.078;2023-05-08T00:39:13;96895.84;;;16.40;78.00
20015;BME280;61787;42.022;23.078;2023-05-08T00:40:15;96902.47;;;16.46;77.89
20015;BME280;61787;42.022;23.078;2023-05-08T00:41:16;96896.03;;;16.58;77.33
20015;BME280;61787;42.022;23.078;2023-05-08T00:42:18;96897.31;;;16.68;76.63
20015;BME280;61787;42.022;23.078;2023-05-08T00:43:20;96906.28;;;16.72;76.54
20015;BME280;61787;42.022;23.078;2023-05-08T00:44:28;96900.88;;;16.72;75.88
20015;BME280;61787;42.022;23.078;2023-05-08T00:45:35;96898.56;;;16.74;75.87
20015;BME280;61787;42.022;23.078;2023-05-08T00:46:38;96900.88;;;16.72;76.06
20015;BME280;61787;42.022;23.078;2023-05-08T00:47:41;96900.03;;;16.68;76.59
20015;BME280;61787;42.022;23.078;2023-05-08T00:48:44;96895.78;;;16.67;76.50
20015;BME280;61787;42.022;23.078;2023-05-08T00:49:47;96903.06;;;16.62;76.92
20015;BME280;61787;42.022;23.078;2023-05-08T00:50:51;96897.66;;;16.62;76.76
20015;BME280;61787;42.022;23.078;2023-05-08T00:51:54;96900.78;;;16.65;76.74
20015;BME280;61787;42.022;23.078;2023-05-08T00:52:57;96895.78;;;16.67;76.94
20015;BME280;61787;42.022;23.078;2023-05-08T00:54:00;96897.75;;;16.70;76.29
20015;BME280;61787;42.022;23.078;2023-05-08T00:55:03;96896.88;;;16.62;76.12
20015;BME280;61787;42.022;23.078;2023-05-08T00:56:12;96901.38;;;16.51;76.30
20015;BME280;61787;42.022;23.078;2023-05-08T00:57:15;96900.50;;;16.43;76.75
20015;BME280;61787;42.022;23.078;2023-05-08T00:58:18;96896.38;;;16.23;78.32
20015;BME280;61787;42.022;23.078;2023-05-08T00:59:21;96898.72;;;16.25;77.82
20015;BME280;61787;42.022;23.078;2023-05-08T01:00:23;96900.31;;;16.29;77.75
20015;BME280;61787;42.022;23.078;2023-05-08T01:01:25;96897.25;;;16.31;78.15
20015;BME280;61787;42.022;23.078;2023-05-08T01:02:28;96894.94;;;16.33;78.22
20015;BME280;61787;42.022;23.078;2023-05-08T01:03:34;96902.59;;;16.27;78.20
20015;BME280;61787;42.022;23.078;2023-05-08T01:04:37;96895.56;;;16.19;78.65
20015;BME280;61787;42.022;23.078;2023-05-08T01:05:39;96895.44;;;16.12;78.37
20015;BME280;61787;42.022;23.078;2023-05-08T01:06:41;96898.53;;;16.10;79.26
20015;BME280;61787;42.022;23.078;2023-05-08T01:07:44;96898.44;;;16.03;78.98
20015;BME280;61787;42.022;23.078;2023-05-08T01:08:45;96896.50;;;16.04;79.50
20015;BME280;61787;42.022;23.078;2023-05-08T01:09:47;96893.84;;;16.07;78.88
20015;BME280;61787;42.022;23.078;2023-05-08T01:12:19;96900.81;;;16.08;79.36
20015;BME280;61787;42.022;23.078;2023-05-08T01:14:03;96903.81;;;16.00;80.15
20015;BME280;61787;42.022;23.078;2023-05-08T01:17:28;96902.25;;;15.72;81.62
20015;BME280;61787;42.022;23.078;2023-05-08T01:18:43;96907.22;;;15.70;82.04
20015;BME280;61787;42.022;23.078;2023-05-08T01:22:52;96904.03;;;15.65;82.42
20015;BME280;61787;42.022;23.078;2023-05-08T01:25:10;96904.13;;;15.68;82.77
20015;BME280;61787;42.022;23.078;2023-05-08T01:26:57;96903.06;;;15.76;81.18
20015;BME280;61787;42.022;23.078;2023-05-08T01:29:58;96906.72;;;15.88;80.81
20015;BME280;61787;42.022;23.078;2023-05-08T01:31:23;96912.94;;;15.92;79.63
20015;BME280;61787;42.022;23.078;2023-05-08T01:32:29;96912.56;;;15.90;79.45
20015;BME280;61787;42.022;23.078;2023-05-08T01:36:01;96903.91;;;15.81;80.32
20015;BME280;61787;42.022;23.078;2023-05-08T01:37:10;96905.81;;;15.80;80.33
20015;BME280;61787;42.022;23.078;2023-05-08T01:38:25;96905.50;;;15.85;80.29
20015;BME280;61787;42.022;23.078;2023-05-08T01:39:58;96905.66;;;15.96;79.02
20015;BME280;61787;42.022;23.078;2023-05-08T01:41:10;96900.63;;;15.94;79.05
20015;BME280;61787;42.022;23.078;2023-05-08T01:42:23;96899.75;;;15.87;79.78
20015;BME280;61787;42.022;23.078;2023-05-08T01:43:49;96893.63;;;15.63;80.99
20015;BME280;61787;42.022;23.078;2023-05-08T01:45:15;96897.03;;;15.60;81.29
20015;BME280;61787;42.022;23.078;2023-05-08T01:46:24;96895.19;;;15.64;81.10
20015;BME280;61787;42.022;23.078;2023-05-08T01:47:29;96899.53;;;15.72;80.53
20015;BME280;61787;42.022;23.078;2023-05-08T01:48:35;96898.09;;;15.78;80.24
20015;BME280;61787;42.022;23.078;2023-05-08T01:49:43;96900.16;;;15.89;79.06
20015;BME280;61787;42.022;23.078;2023-05-08T01:50:48;96905.25;;;15.94;79.03
20015;BME280;61787;42.022;23.078;2023-05-08T01:51:57;96907.66;;;15.99;78.02
20015;BME280;61787;42.022;23.078;2023-05-08T01:53:09;96898.41;;;16.00;78.36
20015;BME280;61787;42.022;23.078;2023-05-08T01:54:21;96898.41;;;16.00;78.45
20015;BME280;61787;42.022;23.078;2023-05-08T01:55:30;96902.03;;;15.85;79.51
20015;BME280;61787;42.022;23.078;2023-05-08T01:56:33;96901.31;;;15.88;79.91
20015;BME280;61787;42.022;23.078;2023-05-08T01:57:39;96895.47;;;15.86;80.18
20015;BME280;61787;42.022;23.078;2023-05-08T01:58:43;96896.94;;;15.80;80.33
20015;BME280;61787;42.022;23.078;2023-05-08T01:59:46;96891.22;;;15.85;80.13
20015;BME280;61787;42.022;23.078;2023-05-08T02:00:49;96897.53;;;15.96;80.06
20015;BME280;61787;42.022;23.078;2023-05-08T02:01:54;96889.09;;;16.01;79.31
20015;BME280;61787;42.022;23.078;2023-05-08T02:02:57;96898.47;;;16.07;78.84
20015;BME280;61787;42.022;23.078;2023-05-08T02:04:00;96893.88;;;16.11;78.67
20015;BME280;61787;42.022;23.078;2023-05-08T02:05:04;96898.59;;;16.14;78.32
20015;BME280;61787;42.022;23.078;2023-05-08T02:06:08;96899.41;;;16.18;78.61
20015;BME280;61787;42.022;23.078;2023-05-08T02:07:10;96900.22;;;16.22;77.78
20015;BME280;61787;42.022;23.078;2023-05-08T02:08:13;96895.22;;;16.24;77.82
20015;BME280;61787;42.022;23.078;2023-05-08T02:09:16;96902.59;;;16.27;77.47
20015;BME280;61787;42.022;23.078;2023-05-08T02:10:23;96900.31;;;16.29;77.12
20015;BME280;61787;42.022;23.078;2023-05-08T02:11:26;96895.56;;;16.19;77.67
20015;BME280;61787;42.022;23.078;2023-05-08T02:12:29;96900.97;;;16.19;77.17
20015;BME280;61787;42.022;23.078;2023-05-08T02:13:34;96894.81;;;16.22;77.10
20015;BME280;61787;42.022;23.078;2023-05-08T02:14:36;96895.22;;;16.24;77.01
20015;BME280;61787;42.022;23.078;2023-05-08T02:15:40;96897.13;;;16.20;76.91
20015;BME280;61787;42.022;23.078;2023-05-08T02:16:43;96899.41;;;16.18;76.71
20015;BME280;61787;42.022;23.078;2023-05-08T02:17:47;96895.84;;;16.10;76.68
20015;BME280;61787;42.022;23.078;2023-05-08T02:18:54;96895.31;;;16.01;77.20
20015;BME280;61787;42.022;23.078;2023-05-08T02:19:57;96896.09;;;16.02;77.34
20015;BME280;61787;42.022;23.078;2023-05-08T02:21:02;96900.34;;;16.03;77.48
20015;BME280;61787;42.022;23.078;2023-05-08T02:22:07;96903.09;;;16.06;77.09
20015;BME280;61787;42.022;23.078;2023-05-08T02:23:09;96897.81;;;16.13;76.70
20015;BME280;61787;42.022;23.078;2023-05-08T02:24:12;96896.59;;;16.11;76.65
20015;BME280;61787;42.022;23.078;2023-05-08T02:25:15;96903.16;;;16.10;76.65
20015;BME280;61787;42.022;23.078;2023-05-08T02:26:18;96896.91;;;16.06;77.28
20015;BME280;61787;42.022;23.078;2023-05-08T02:27:24;96899.22;;;16.04;77.19
20015;BME280;61787;42.022;23.078;2023-05-08T02:28:28;96893.81;;;16.04;76.90
20015;BME280;61787;42.022;23.078;2023-05-08T02:29:30;96907.72;;;16.06;76.81
20015;BME280;61787;42.022;23.078;2023-05-08T02:30:33;96905.03;;;16.06;76.35
20015;BME280;61787;42.022;23.078;2023-05-08T02:31:36;96907.66;;;15.99;77.27
20015;BME280;61787;42.022;23.078;2023-05-08T02:32:43;96907.13;;;15.90;77.58
20015;BME280;61787;42.022;23.078;2023-05-08T02:33:46;96910.25;;;15.92;77.91
20015;BME280;61787;42.022;23.078;2023-05-08T02:34:49;96906.09;;;15.98;77.29
20015;BME280;61787;42.022;23.078;2023-05-08T02:36:03;96908.47;;;16.03;77.47
20015;BME280;61787;42.022;23.078;2023-05-08T02:37:06;96905.44;;;16.08;77.29
20015;BME280;61787;42.022;23.078;2023-05-08T02:38:09;96907.41;;;16.11;76.73
20015;BME280;61787;42.022;23.078;2023-05-08T02:39:13;96908.59;;;16.10;76.57
20015;BME280;61787;42.022;23.078;2023-05-08T02:40:16;96909.41;;;16.14;76.04
20015;BME280;61787;42.022;23.078;2023-05-08T02:41:20;96912.44;;;16.09;75.95
20015;BME280;61787;42.022;23.078;2023-05-08T02:42:23;96908.78;;;15.98;76.66
20015;BME280;61787;42.022;23.078;2023-05-08T02:43:26;96913.72;;;15.92;77.44
20015;BME280;61787;42.022;23.078;2023-05-08T02:44:27;96918.78;;;15.67;78.68
20015;BME280;61787;42.022;23.078;2023-05-08T02:45:34;96921.09;;;15.46;80.83
20015;BME280;61787;42.022;23.078;2023-05-08T02:46:45;96918.41;;;15.46;80.45
20015;BME280;61787;42.022;23.078;2023-05-08T02:48:07;96908.53;;;15.54;80.38
20015;BME280;61787;42.022;23.078;2023-05-08T02:49:26;96912.84;;;15.58;79.82
20015;BME280;61787;42.022;23.078;2023-05-08T02:50:37;96917.88;;;15.60;79.53
20015;BME280;61787;42.022;23.078;2023-05-08T02:52:47;96920.56;;;15.37;81.11
20015;BME280;61787;42.022;23.078;2023-05-08T02:54:03;96921.19;;;15.27;81.91
20015;BME280;61787;42.022;23.078;2023-05-08T02:58:07;96920.19;;;15.16;84.27
20015;BME280;61787;42.022;23.078;2023-05-08T02:59:19;96918.94;;;15.10;84.22
20015;BME280;61787;42.022;23.078;2023-05-08T03:00:26;96921.03;;;14.97;85.28
20015;BME280;61787;42.022;23.078;2023-05-08T03:02:53;96924.69;;;15.08;85.42
20015;BME280;61787;42.022;23.078;2023-05-08T03:04:01;96929.44;;;15.15;84.75
20015;BME280;61787;42.022;23.078;2023-05-08T03:05:28;96929.09;;;15.16;85.29
20015;BME280;61787;42.022;23.078;2023-05-08T03:06:36;96925.66;;;15.19;84.41
20015;BME280;61787;42.022;23.078;2023-05-08T03:07:39;96923.56;;;15.32;83.95
20015;BME280;61787;42.022;23.078;2023-05-08T03:08:42;96921.44;;;15.45;82.12
20015;BME280;61787;42.022;23.078;2023-05-08T03:09:47;96924.94;;;15.45;82.44
20015;BME280;61787;42.022;23.078;2023-05-08T03:10:53;96922.25;;;15.45;83.00
20015;BME280;61787;42.022;23.078;2023-05-08T03:12:03;96930.03;;;15.50;82.46
20015;BME280;61787;42.022;23.078;2023-05-08T03:13:08;96928.22;;;15.54;81.88
20015;BME280;61787;42.022;23.078;2023-05-08T03:14:12;96924.38;;;15.55;81.49
20015;BME280;61787;42.022;23.078;2023-05-08T03:15:42;96923.19;;;15.53;81.83
20015;BME280;61787;42.022;23.078;2023-05-08T03:16:46;96921.72;;;15.36;82.51
20015;BME280;61787;42.022;23.078;2023-05-08T03:17:57;96925.19;;;15.36;82.76
20015;BME280;61787;42.022;23.078;2023-05-08T03:19:00;96931.06;;;15.42;81.99
20015;BME280;61787;42.022;23.078;2023-05-08T03:20:05;96925.19;;;15.36;82.81
20015;BME280;61787;42.022;23.078;2023-05-08T03:21:09;96931.25;;;15.30;82.77
20015;BME280;61787;42.022;23.078;2023-05-08T03:22:14;96931.75;;;15.13;83.20
20015;BME280;61787;42.022;23.078;2023-05-08T03:23:19;96926.44;;;14.97;84.20
20015;BME280;61787;42.022;23.078;2023-05-08T03:24:22;96929.63;;;14.83;84.90
20015;BME280;61787;42.022;23.078;2023-05-08T03:25:25;96932.56;;;14.75;85.95
20015;BME280;61787;42.022;23.078;2023-05-08T03:26:28;96939.03;;;14.70;86.49
20015;BME280;61787;42.022;23.078;2023-05-08T03:27:31;96936.53;;;14.81;86.39
20015;BME280;61787;42.022;23.078;2023-05-08T03:28:34;96938.22;;;14.89;86.21
20015;BME280;61787;42.022;23.078;2023-05-08T03:29:38;96939.94;;;14.97;84.95
20015;BME280;61787;42.022;23.078;2023-05-08T03:30:40;96938.13;;;15.05;84.81
20015;BME280;61787;42.022;23.078;2023-05-08T03:31:43;96932.88;;;15.12;84.52
20015;BME280;61787;42.022;23.078;2023-05-08T03:32:45;96937.25;;;15.20;84.20
20015;BME280;61787;42.022;23.078;2023-05-08T03:33:52;96934.97;;;15.22;84.26
20015;BME280;61787;42.022;23.078;2023-05-08T03:34:54;96932.69;;;15.24;84.33
20015;BME280;61787;42.022;23.078;2023-05-08T03:35:58;96928.16;;;15.28;83.91
20015;BME280;61787;42.022;23.078;2023-05-08T03:37:00;96932.38;;;15.29;84.10
20015;BME280;61787;42.022;23.078;2023-05-08T03:38:03;96942.84;;;15.30;83.93
20015;BME280;61787;42.022;23.078;2023-05-08T03:39:04;96939.06;;;15.35;83.59
20015;BME280;61787;42.022;23.078;2023-05-08T03:40:08;96944.59;;;15.42;83.50
20015;BME280;61787;42.022;23.078;2023-05-08T03:41:10;96937.75;;;15.48;82.90
20015;BME280;61787;42.022;23.078;2023-05-08T03:42:12;96932.06;;;15.53;83.01
20015;BME280;61787;42.022;23.078;2023-05-08T03:43:21;96940.28;;;15.60;82.28
20015;BME280;61787;42.022;23.078;2023-05-08T03:44:24;96943.84;;;15.64;81.89
20015;BME280;61787;42.022;23.078;2023-05-08T03:45:27;96936.19;;;15.70;81.66
20015;BME280;61787;42.022;23.078;2023-05-08T03:46:30;96945.19;;;15.77;81.01
20015;BME280;61787;42.022;23.078;2023-05-08T03:47:34;96946.81;;;15.82;80.99
20015;BME280;61787;42.022;23.078;2023-05-08T03:48:37;96946.84;;;15.86;80.44
20015;BME280;61787;42.022;23.078;2023-05-08T03:49:39;96938.44;;;15.91;79.83
20015;BME280;61787;42.022;23.078;2023-05-08T03:50:40;96943.91;;;15.94;80.29
20015;BME280;61787;42.022;23.078;2023-05-08T03:51:43;96954.78;;;15.98;79.13
20015;BME280;61787;42.022;23.078;2023-05-08T03:52:45;96947.88;;;16.00;79.36
20015;BME280;61787;42.022;23.078;2023-05-08T03:53:46;96953.69;;;16.02;78.98
20015;BME280;61787;42.022;23.078;2023-05-08T03:54:48;96950.25;;;16.05;78.83
20015;BME280;61787;42.022;23.078;2023-05-08T03:55:49;96944.09;;;16.08;79.10
20015;BME280;61787;42.022;23.078;2023-05-08T03:56:53;96950.69;;;16.11;78.30
20015;BME280;61787;42.022;23.078;2023-05-08T03:58:27;96951.91;;;16.13;78.79
20015;BME280;61787;42.022;23.078;2023-05-08T03:59:49;96949.63;;;16.15;78.79
20015;BME280;61787;42.022;23.078;2023-05-08T04:01:06;96956.66;;;16.20;79.10
20015;BME280;61787;42.022;23.078;2023-05-08T04:03:36;96949.03;;;16.03;79.58
20015;BME280;61787;42.022;23.078;2023-05-08T04:04:44;96949.78;;;16.00;79.62
20015;BME280;61787;42.022;23.078;2023-05-08T04:05:59;96956.66;;;15.94;80.08
20015;BME280;61787;42.022;23.078;2023-05-08T04:08:15;96958.19;;;15.68;81.65
20015;BME280;61787;42.022;23.078;2023-05-08T04:10:36;96958.50;;;15.44;82.31
20015;BME280;61787;42.022;23.078;2023-05-08T04:12:56;96959.88;;;15.34;83.81
20015;BME280;61787;42.022;23.078;2023-05-08T04:14:02;96967.22;;;15.34;83.74
20015;BME280;61787;42.022;23.078;2023-05-08T04:15:09;96974.47;;;15.30;84.69
20015;BME280;61787;42.022;23.078;2023-05-08T04:16:23;96970.59;;;15.27;84.82
20015;BME280;61787;42.022;23.078;2023-05-08T04:18:41;96968.66;;;15.28;84.39
20015;BME280;61787;42.022;23.078;2023-05-08T04:19:45;96969.06;;;15.30;84.29
20015;BME280;61787;42.022;23.078;2023-05-08T04:20:49;96968.97;;;15.23;84.41
20015;BME280;61787;42.022;23.078;2023-05-08T04:21:58;96964.25;;;15.20;85.14
20015;BME280;61787;42.022;23.078;2023-05-08T04:23:00;96970.50;;;15.24;84.98
20015;BME280;61787;42.022;23.078;2023-05-08T04:24:03;96967.41;;;15.22;84.81
20015;BME280;61787;42.022;23.078;2023-05-08T04:25:08;96971.97;;;15.18;84.72
20015;BME280;61787;42.022;23.078;2023-05-08T04:26:13;96973.13;;;14.98;86.12
20015;BME280;61787;42.022;23.078;2023-05-08T04:27:17;96977.38;;;14.79;87.44
20015;BME280;61787;42.022;23.078;2023-05-08T04:28:19;96974.13;;;14.70;88.51
20015;BME280;61787;42.022;23.078;2023-05-08T04:29:22;96971.97;;;14.79;88.07
20015;BME280;61787;42.022;23.078;2023-05-08T04:30:24;96974.34;;;14.81;88.60
20015;BME280;61787;42.022;23.078;2023-05-08T04:31:26;96975.13;;;14.81;88.51
20015;BME280;61787;42.022;23.078;2023-05-08T04:32:29;96973.81;;;14.94;88.29
20015;BME280;61787;42.022;23.078;2023-05-08T04:33:33;96974.75;;;15.02;88.45
20015;BME280;61787;42.022;23.078;2023-05-08T04:34:35;96980.06;;;14.99;87.86
20015;BME280;61787;42.022;23.078;2023-05-08T04:35:37;96976.88;;;14.93;88.47
20015;BME280;61787;42.022;23.078;2023-05-08T04:36:39;96977.09;;;14.84;88.90
20015;BME280;61787;42.022;23.078;2023-05-08T04:37:41;96977.09;;;14.84;89.21
20015;BME280;61787;42.022;23.078;2023-05-08T04:38:43;96980.00;;;14.95;88.62
20015;BME280;61787;42.022;23.078;2023-05-08T04:39:49;96982.47;;;15.04;87.67
20015;BME280;61787;42.022;23.078;2023-05-08T04:40:51;96974.81;;;15.06;87.61
20015;BME280;61787;42.022;23.078;2023-05-08T04:41:52;96977.22;;;15.11;86.72
20015;BME280;61787;42.022;23.078;2023-05-08T04:42:56;96979.50;;;15.09;86.89
20015;BME280;61787;42.022;23.078;2023-05-08T04:43:57;96972.41;;;15.01;86.23
20015;BME280;61787;42.022;23.078;2023-05-08T04:45:00;96975.97;;;14.85;86.42
20015;BME280;61787;42.022;23.078;2023-05-08T04:46:02;96977.38;;;14.79;86.97
20015;BME280;61787;42.022;23.078;2023-05-08T04:47:06;96973.13;;;14.78;87.17
20015;BME280;61787;42.022;23.078;2023-05-08T04:48:07;96979.84;;;14.88;87.28
20015;BME280;61787;42.022;23.078;2023-05-08T04:49:09;96983.19;;;15.01;86.87
20015;BME280;61787;42.022;23.078;2023-05-08T04:50:11;96984.19;;;15.12;87.02
20015;BME280;61787;42.022;23.078;2023-05-08T04:51:12;96975.34;;;15.15;86.07
20015;BME280;61787;42.022;23.078;2023-05-08T04:52:14;96978.78;;;15.12;86.43
20015;BME280;61787;42.022;23.078;2023-05-08T04:53:16;96980.06;;;14.99;86.53
20015;BME280;61787;42.022;23.078;2023-05-08T04:54:17;96973.19;;;15.01;87.28
20015;BME280;61787;42.022;23.078;2023-05-08T04:55:19;96972.06;;;15.02;87.21
20015;BME280;61787;42.022;23.078;2023-05-08T04:56:20;96978.66;;;15.05;86.76
20015;BME280;61787;42.022;23.078;2023-05-08T04:57:22;96976.19;;;14.96;87.04
20015;BME280;61787;42.022;23.078;2023-05-08T04:58:24;96972.13;;;14.86;87.41
20015;BME280;61787;42.022;23.078;2023-05-08T04:59:25;96967.44;;;14.83;88.18
20015;BME280;61787;42.022;23.078;2023-05-08T05:00:27;96963.59;;;14.84;87.52
20015;BME280;61787;42.022;23.078;2023-05-08T05:01:29;96970.41;;;14.78;88.23
20015;BME280;61787;42.022;23.078;2023-05-08T05:02:30;96970.69;;;14.73;88.83
20015;BME280;61787;42.022;23.078;2023-05-08T05:03:32;96976.81;;;14.70;88.88
20015;BME280;61787;42.022;23.078;2023-05-08T05:04:34;96967.00;;;14.62;89.16
20015;BME280;61787;42.022;23.078;2023-05-08T05:05:36;96963.91;;;14.60;89.96
20015;BME280;61787;42.022;23.078;2023-05-08T05:06:39;96958.63;;;14.67;89.76
20015;BME280;61787;42.022;23.078;2023-05-08T05:07:41;96960.34;;;14.75;89.63
20015;BME280;61787;42.022;23.078;2023-05-08T05:08:43;96956.50;;;14.76;89.06
20015;BME280;61787;42.022;23.078;2023-05-08T05:09:44;96953.09;;;14.79;88.42
20015;BME280;61787;42.022;23.078;2023-05-08T05:10:46;96960.34;;;14.75;89.74
20015;BME280;61787;42.022;23.078;2023-05-08T05:11:47;96953.66;;;14.69;89.61
20015;BME280;61787;42.022;23.078;2023-05-08T05:12:49;96952.59;;;14.74;89.46
20015;BME280;61787;42.022;23.078;2023-05-08T05:13:51;96960.06;;;14.61;89.28
20015;BME280;61787;42.022;23.078;2023-05-08T05:14:52;96950.53;;;14.48;90.58
20015;BME280;61787;42.022;23.078;2023-05-08T05:15:54;96952.72;;;14.42;90.50
20015;BME280;61787;42.022;23.078;2023-05-08T05:16:56;96946.53;;;14.42;91.44
20015;BME280;61787;42.022;23.078;2023-05-08T05:17:58;96951.31;;;14.48;91.36
20015;BME280;61787;42.022;23.078;2023-05-08T05:19:00;96949.56;;;14.56;91.21
20015;BME280;61787;42.022;23.078;2023-05-08T05:20:02;96953.09;;;14.60;90.33
20015;BME280;61787;42.022;23.078;2023-05-08T05:21:03;96958.34;;;14.72;90.54
20015;BME280;61787;42.022;23.078;2023-05-08T05:22:05;96953.66;;;14.88;89.36
20015;BME280;61787;42.022;23.078;2023-05-08T05:23:08;96951.53;;;14.98;88.88
20015;BME280;61787;42.022;23.078;2023-05-08T05:24:10;96946.66;;;15.07;88.28
20015;BME280;61787;42.022;23.078;2023-05-08T05:25:11;96949.63;;;15.21;88.36
20015;BME280;61787;42.022;23.078;2023-05-08T05:26:13;96947.59;;;15.37;87.19
20015;BME280;61787;42.022;23.078;2023-05-08T05:27:15;96947.97;;;15.58;86.97
20015;BME280;61787;42.022;23.078;2023-05-08T05:28:16;96947.13;;;15.77;86.99
20015;BME280;61787;42.022;23.078;2023-05-08T05:29:18;96943.13;;;15.94;85.77
20015;BME280;61787;42.022;23.078;2023-05-08T05:30:20;96949.16;;;16.10;85.01
20015;BME280;61787;42.022;23.078;2023-05-08T05:31:21;96950.50;;;16.23;84.40
20015;BME280;61787;42.022;23.078;2023-05-08T05:32:23;96942.56;;;16.37;83.56
20015;BME280;61787;42.022;23.078;2023-05-08T05:33:24;96947.75;;;16.49;83.61
20015;BME280;61787;42.022;23.078;2023-05-08T05:34:26;96954.94;;;16.65;82.94
20015;BME280;61787;42.022;23.078;2023-05-08T05:35:28;96948.44;;;16.73;82.10
20015;BME280;61787;42.022;23.078;2023-05-08T05:36:29;96952.47;;;16.86;82.05
20015;BME280;61787;42.022;23.078;2023-05-08T05:37:31;96942.16;;;16.98;81.59
20015;BME280;61787;42.022;23.078;2023-05-08T05:38:32;96945.38;;;17.08;82.10
20015;BME280;61787;42.022;23.078;2023-05-08T05:39:34;96943.13;;;17.17;81.20
20015;BME280;61787;42.022;23.078;2023-05-08T05:40:36;96940.88;;;17.22;81.22
20015;BME280;61787;42.022;23.078;2023-05-08T05:41:38;96934.72;;;17.29;80.12
20015;BME280;61787;42.022;23.078;2023-05-08T05:42:39;96940.19;;;17.32;79.64
20015;BME280;61787;42.022;23.078;2023-05-08T05:43:41;96938.28;;;17.36;79.22
20015;BME280;61787;42.022;23.078;2023-05-08T05:44:43;96935.56;;;17.36;79.29
20015;BME280;61787;42.022;23.078;2023-05-08T05:45:44;96931.75;;;17.44;79.36
20015;BME280;61787;42.022;23.078;2023-05-08T05:46:46;96945.06;;;17.57;78.61
20015;BME280;61787;42.022;23.078;2023-05-08T05:47:47;96940.53;;;17.68;78.38
20015;BME280;61787;42.022;23.078;2023-05-08T05:48:50;96940.63;;;17.78;77.93
20015;BME280;61787;42.022;23.078;2023-05-08T05:49:52;96940.28;;;17.87;76.14
20015;BME280;61787;42.022;23.078;2023-05-08T05:50:53;96936.41;;;17.88;76.19
20015;BME280;61787;42.022;23.078;2023-05-08T05:51:55;96937.22;;;17.96;75.83
20015;BME280;61787;42.022;23.078;2023-05-08T05:52:57;96928.72;;;17.97;75.16
20015;BME280;61787;42.022;23.078;2023-05-08T05:53:58;96926.00;;;17.97;75.11
20015;BME280;61787;42.022;23.078;2023-05-08T05:55:00;96933.38;;;17.97;75.11
20015;BME280;61787;42.022;23.078;2023-05-08T05:56:01;96928.38;;;18.02;74.86
20015;BME280;61787;42.022;23.078;2023-05-08T05:57:03;96931.53;;;18.11;74.47
20015;BME280;61787;42.022;23.078;2023-05-08T05:58:05;96933.06;;;18.12;74.50
20015;BME280;61787;42.022;23.078;2023-05-08T05:59:07;96927.66;;;18.12;74.53
20015;BME280;61787;42.022;23.078;2023-05-08T06:00:09;96930.06;;;18.21;74.42
20015;BME280;61787;42.022;23.078;2023-05-08T06:01:11;96929.34;;;18.35;73.99